sensor_id;sensor_type;location;lat;lon;timestamp;temperature;humidity
12287;DHT22;6206;53.100;11.098;2022-11-13T00:02:05;6.20;99.90
12287;DHT22;6206;53.100;11.098;2022-11-13T00:04:32;3.90;99.90
12287;DHT22;6206;53.100;11.098;2022-11-13T00:06:59;6.00;99.90
12287;DHT22;6206;53.100;11.098;2022-11-13T00:09:26;6.00;99.90
12287;DHT22;6206;53.100;11.098;2022-11-13T00:11:54;6.10;99.90
12287;DHT22;6206;53.100;11.098;2022-11-13T00:14:21;3.60;99.90
12287;DHT22;6206;53.100;11.098;2022-11-13T00:16:47;6.50;99.90
12287;DHT22;6206;53.100;11.098;2022-11-13T00:19:14;3.80;99.90
12287;DHT22;6206;53.100;11.098;2022-11-13T00:21:41;3.80;99.90
12287;DHT22;6206;53.100;11.098;2022-11-13T00:24:08;6.30;99.90
12287;DHT22;6206;53.100;11.098;2022-11-13T00:26:35;3.90;99.90
12287;DHT22;6206;53.100;11.098;2022-11-13T00:29:03;6.90;99.90
12287;DHT22;6206;53.100;11.098;2022-11-13T00:31:30;4.20;99.90
12287;DHT22;6206;53.100;11.098;2022-11-13T00:33:57;3.80;99.90
12287;DHT22;6206;53.100;11.098;2022-11-13T00:36:26;3.60;99.90
12287;DHT22;6206;53.100;11.098;2022-11-13T00:38:54;6.10;99.90
12287;DHT22;6206;53.100;11.098;2022-11-13T00:41:21;6.30;99.90
12287;DHT22;6206;53.100;11.098;2022-11-13T00:43:48;6.90;99.90
12287;DHT22;6206;53.100;11.098;2022-11-13T00:46:16;6.00;99.90
12287;DHT22;6206;53.100;11.098;2022-11-13T00:48:43;3.20;99.90
12287;DHT22;6206;53.100;11.098;2022-11-13T00:51:10;6.80;99.90
12287;DHT22;6206;53.100;11.098;2022-11-13T00:53:36;3.10;99.90
12287;DHT22;6206;53.100;11.098;2022-11-13T00:56:04;6.80;99.90
12287;DHT22;6206;53.100;11.098;2022-11-13T00:58:31;3.00;99.90
12287;DHT22;6206;53.100;11.098;2022-11-13T01:01:04;3.20;99.90
12287;DHT22;6206;53.100;11.098;2022-11-13T01:03:33;3.90;99.90
12287;DHT22;6206;53.100;11.098;2022-11-13T01:05:59;3.90;99.90
12287;DHT22;6206;53.100;11.098;2022-11-13T01:08:26;6.20;99.90
12287;DHT22;6206;53.100;11.098;2022-11-13T01:10:53;6.00;99.90
12287;DHT22;6206;53.100;11.098;2022-11-13T01:13:20;3.60;99.90
12287;DHT22;6206;53.100;11.098;2022-11-13T01:15:46;3.90;99.90
12287;DHT22;6206;53.100;11.098;2022-11-13T01:18:13;3.90;99.90
12287;DHT22;6206;53.100;11.098;2022-11-13T01:20:41;4.10;99.90
12287;DHT22;6206;53.100;11.098;2022-11-13T01:23:08;6.50;99.90
12287;DHT22;6206;53.100;11.098;2022-11-13T01:25:35;3.90;99.90
12287;DHT22;6206;53.100;11.098;2022-11-13T01:28:02;6.70;99.90
12287;DHT22;6206;53.100;11.098;2022-11-13T01:30:29;3.40;99.90
12287;DHT22;6206;53.100;11.098;2022-11-13T01:32:56;5.80;99.90
12287;DHT22;6206;53.100;11.098;2022-11-13T01:35:22;3.00;99.90
12287;DHT22;6206;53.100;11.098;2022-11-13T01:37:50;4.70;99.90
12287;DHT22;6206;53.100;11.098;2022-11-13T01:40:17;3.00;99.90
12287;DHT22;6206;53.100;11.098;2022-11-13T01:42:46;3.70;99.90
12287;DHT22;6206;53.100;11.098;2022-11-13T01:45:48;3.00;99.90
12287;DHT22;6206;53.100;11.098;2022-11-13T01:48:31;3.30;99.90
12287;DHT22;6206;53.100;11.098;2022-11-13T01:50:59;3.70;99.90
12287;DHT22;6206;53.100;11.098;2022-11-13T01:53:27;6.60;99.90
12287;DHT22;6206;53.100;11.098;2022-11-13T01:55:55;4.20;99.90
12287;DHT22;6206;53.100;11.098;2022-11-13T01:58:22;6.30;99.90
12287;DHT22;6206;53.100;11.098;2022-11-13T02:00:48;6.60;99.90
12287;DHT22;6206;53.100;11.098;2022-11-13T02:03:15;5.90;99.90
12287;DHT22;6206;53.100;11.098;2022-11-13T02:05:42;3.20;99.90
12287;DHT22;6206;53.100;11.098;2022-11-13T02:08:08;3.20;99.90
12287;DHT22;6206;53.100;11.098;2022-11-13T02:10:37;3.00;99.90
12287;DHT22;6206;53.100;11.098;2022-11-13T02:13:04;2.90;99.90
12287;DHT22;6206;53.100;11.098;2022-11-13T02:15:33;6.10;99.90
12287;DHT22;6206;53.100;11.098;2022-11-13T02:18:01;2.80;99.90
12287;DHT22;6206;53.100;11.098;2022-11-13T02:20:38;2.70;99.90
12287;DHT22;6206;53.100;11.098;2022-11-13T02:23:12;2.70;99.90
12287;DHT22;6206;53.100;11.098;2022-11-13T02:25:42;5.80;99.90
12287;DHT22;6206;53.100;11.098;2022-11-13T02:28:10;2.80;99.90
12287;DHT22;6206;53.100;11.098;2022-11-13T02:30:37;2.80;99.90
12287;DHT22;6206;53.100;11.098;2022-11-13T02:33:20;3.10;99.90
12287;DHT22;6206;53.100;11.098;2022-11-13T02:35:47;3.50;99.90
12287;DHT22;6206;53.100;11.098;2022-11-13T02:38:13;7.00;99.90
12287;DHT22;6206;53.100;11.098;2022-11-13T02:40:42;3.80;99.90
12287;DHT22;6206;53.100;11.098;2022-11-13T02:43:08;3.10;99.90
12287;DHT22;6206;53.100;11.098;2022-11-13T02:45:35;6.50;99.90
12287;DHT22;6206;53.100;11.098;2022-11-13T02:48:03;2.80;99.90
12287;DHT22;6206;53.100;11.098;2022-11-13T02:50:31;2.70;99.90
12287;DHT22;6206;53.100;11.098;2022-11-13T02:52:58;6.50;99.90
12287;DHT22;6206;53.100;11.098;2022-11-13T02:55:25;2.70;99.90
12287;DHT22;6206;53.100;11.098;2022-11-13T02:57:53;2.70;99.90
12287;DHT22;6206;53.100;11.098;2022-11-13T03:00:20;2.70;99.90
12287;DHT22;6206;53.100;11.098;2022-11-13T03:02:47;2.70;99.90
12287;DHT22;6206;53.100;11.098;2022-11-13T03:05:14;2.70;99.90
12287;DHT22;6206;53.100;11.098;2022-11-13T03:07:41;2.60;99.90
12287;DHT22;6206;53.100;11.098;2022-11-13T03:10:09;6.10;99.90
12287;DHT22;6206;53.100;11.098;2022-11-13T03:12:36;6.00;99.90
12287;DHT22;6206;53.100;11.098;2022-11-13T03:15:06;2.60;99.90
12287;DHT22;6206;53.100;11.098;2022-11-13T03:17:33;2.60;99.90
12287;DHT22;6206;53.100;11.098;2022-11-13T03:20:00;2.70;99.90
12287;DHT22;6206;53.100;11.098;2022-11-13T03:22:27;2.60;99.90
12287;DHT22;6206;53.100;11.098;2022-11-13T03:24:54;2.80;99.90
12287;DHT22;6206;53.100;11.098;2022-11-13T03:27:20;5.60;99.90
12287;DHT22;6206;53.100;11.098;2022-11-13T03:29:47;2.80;99.90
12287;DHT22;6206;53.100;11.098;2022-11-13T03:32:16;2.90;99.90
12287;DHT22;6206;53.100;11.098;2022-11-13T03:34:43;3.00;99.90
12287;DHT22;6206;53.100;11.098;2022-11-13T03:37:09;3.00;99.90
12287;DHT22;6206;53.100;11.098;2022-11-13T03:39:36;3.10;99.90
12287;DHT22;6206;53.100;11.098;2022-11-13T03:42:03;3.10;99.90
12287;DHT22;6206;53.100;11.098;2022-11-13T03:44:30;3.00;99.90
12287;DHT22;6206;53.100;11.098;2022-11-13T03:46:56;3.00;99.90
12287;DHT22;6206;53.100;11.098;2022-11-13T03:49:25;5.70;99.90
12287;DHT22;6206;53.100;11.098;2022-11-13T03:51:51;3.10;99.90
12287;DHT22;6206;53.100;11.098;2022-11-13T03:54:18;2.40;99.90
12287;DHT22;6206;53.100;11.098;2022-11-13T03:56:45;5.90;99.90
12287;DHT22;6206;53.100;11.098;2022-11-13T03:59:12;2.90;99.90
12287;DHT22;6206;53.100;11.098;2022-11-13T04:01:38;2.90;99.90
12287;DHT22;6206;53.100;11.098;2022-11-13T04:04:05;3.00;99.90
12287;DHT22;6206;53.100;11.098;2022-11-13T04:06:33;3.20;99.90
12287;DHT22;6206;53.100;11.098;2022-11-13T04:09:00;5.90;99.90
12287;DHT22;6206;53.100;11.098;2022-11-13T04:11:27;6.10;99.90
12287;DHT22;6206;53.100;11.098;2022-11-13T04:13:53;3.20;99.90
12287;DHT22;6206;53.100;11.098;2022-11-13T04:16:20;6.10;99.90
12287;DHT22;6206;53.100;11.098;2022-11-13T04:18:47;2.90;99.90
12287;DHT22;6206;53.100;11.098;2022-11-13T04:21:14;6.10;99.90
12287;DHT22;6206;53.100;11.098;2022-11-13T04:23:42;2.80;99.90
12287;DHT22;6206;53.100;11.098;2022-11-13T04:26:09;2.70;99.90
12287;DHT22;6206;53.100;11.098;2022-11-13T04:28:35;6.30;99.90
12287;DHT22;6206;53.100;11.098;2022-11-13T04:31:02;2.70;99.90
12287;DHT22;6206;53.100;11.098;2022-11-13T04:33:29;2.80;99.90
12287;DHT22;6206;53.100;11.098;2022-11-13T04:35:56;2.90;99.90
12287;DHT22;6206;53.100;11.098;2022-11-13T04:38:22;2.90;99.90
12287;DHT22;6206;53.100;11.098;2022-11-13T04:40:50;2.90;99.90
12287;DHT22;6206;53.100;11.098;2022-11-13T04:43:37;6.40;99.90
12287;DHT22;6206;53.100;11.098;2022-11-13T04:46:03;3.00;99.90
12287;DHT22;6206;53.100;11.098;2022-11-13T04:48:30;3.10;99.90
12287;DHT22;6206;53.100;11.098;2022-11-13T04:50:57;3.10;99.90
12287;DHT22;6206;53.100;11.098;2022-11-13T04:53:24;3.20;99.90
12287;DHT22;6206;53.100;11.098;2022-11-13T04:55:52;5.90;99.90
12287;DHT22;6206;53.100;11.098;2022-11-13T04:58:19;3.50;99.90
12287;DHT22;6206;53.100;11.098;2022-11-13T05:00:46;6.40;99.90
12287;DHT22;6206;53.100;11.098;2022-11-13T05:03:13;3.40;99.90
12287;DHT22;6206;53.100;11.098;2022-11-13T05:05:39;3.40;99.90
12287;DHT22;6206;53.100;11.098;2022-11-13T05:08:06;6.50;99.90
12287;DHT22;6206;53.100;11.098;2022-11-13T05:10:33;3.70;99.90
12287;DHT22;6206;53.100;11.098;2022-11-13T05:13:01;4.00;99.90
12287;DHT22;6206;53.100;11.098;2022-11-13T05:15:28;5.90;99.90
12287;DHT22;6206;53.100;11.098;2022-11-13T05:17:54;6.40;99.90
12287;DHT22;6206;53.100;11.098;2022-11-13T05:20:21;7.60;99.90
12287;DHT22;6206;53.100;11.098;2022-11-13T05:22:48;5.80;99.90
12287;DHT22;6206;53.100;11.098;2022-11-13T05:25:15;8.70;99.90
12287;DHT22;6206;53.100;11.098;2022-11-13T05:27:41;5.40;99.90
12287;DHT22;6206;53.100;11.098;2022-11-13T05:30:10;5.30;99.90
12287;DHT22;6206;53.100;11.098;2022-11-13T05:32:37;5.10;99.90
12287;DHT22;6206;53.100;11.098;2022-11-13T05:35:04;6.70;99.90
12287;DHT22;6206;53.100;11.098;2022-11-13T05:37:31;4.90;99.90
12287;DHT22;6206;53.100;11.098;2022-11-13T05:39:57;7.20;99.90
12287;DHT22;6206;53.100;11.098;2022-11-13T05:42:24;8.20;99.90
12287;DHT22;6206;53.100;11.098;2022-11-13T05:44:51;7.50;99.90
12287;DHT22;6206;53.100;11.098;2022-11-13T05:47:19;6.70;99.90
12287;DHT22;6206;53.100;11.098;2022-11-13T05:49:46;8.40;99.90
12287;DHT22;6206;53.100;11.098;2022-11-13T05:52:12;5.30;99.90
12287;DHT22;6206;53.100;11.098;2022-11-13T05:54:39;5.20;99.90
12287;DHT22;6206;53.100;11.098;2022-11-13T05:57:06;5.80;99.90
12287;DHT22;6206;53.100;11.098;2022-11-13T05:59:33;8.00;99.90
12287;DHT22;6206;53.100;11.098;2022-11-13T06:01:59;8.50;99.90
12287;DHT22;6206;53.100;11.098;2022-11-13T06:04:27;8.20;99.90
12287;DHT22;6206;53.100;11.098;2022-11-13T06:06:54;9.00;99.90
12287;DHT22;6206;53.100;11.098;2022-11-13T06:09:21;8.60;99.90
12287;DHT22;6206;53.100;11.098;2022-11-13T06:11:48;5.30;99.90
12287;DHT22;6206;53.100;11.098;2022-11-13T06:14:15;5.40;99.90
12287;DHT22;6206;53.100;11.098;2022-11-13T06:16:41;5.50;99.90
12287;DHT22;6206;53.100;11.098;2022-11-13T06:19:09;8.20;99.90
12287;DHT22;6206;53.100;11.098;2022-11-13T06:21:39;7.40;99.90
12287;DHT22;6206;53.100;11.098;2022-11-13T06:24:07;7.90;99.90
12287;DHT22;6206;53.100;11.098;2022-11-13T06:26:34;7.50;99.90
12287;DHT22;6206;53.100;11.098;2022-11-13T06:29:03;5.80;99.90
12287;DHT22;6206;53.100;11.098;2022-11-13T06:31:32;6.90;99.90
12287;DHT22;6206;53.100;11.098;2022-11-13T06:33:59;8.10;99.90
12287;DHT22;6206;53.100;11.098;2022-11-13T06:36:28;5.80;99.90
12287;DHT22;6206;53.100;11.098;2022-11-13T06:38:57;5.80;99.90
12287;DHT22;6206;53.100;11.098;2022-11-13T06:41:26;5.70;99.90
12287;DHT22;6206;53.100;11.098;2022-11-13T06:43:54;8.30;99.90
12287;DHT22;6206;53.100;11.098;2022-11-13T06:46:23;7.40;99.90
12287;DHT22;6206;53.100;11.098;2022-11-13T06:48:50;5.60;99.90
12287;DHT22;6206;53.100;11.098;2022-11-13T06:51:19;9.10;99.90
12287;DHT22;6206;53.100;11.098;2022-11-13T06:53:46;8.70;99.90
12287;DHT22;6206;53.100;11.098;2022-11-13T06:56:15;6.20;99.90
12287;DHT22;6206;53.100;11.098;2022-11-13T06:58:43;8.60;99.90
12287;DHT22;6206;53.100;11.098;2022-11-13T07:01:11;7.90;99.90
12287;DHT22;6206;53.100;11.098;2022-11-13T07:03:39;8.20;99.90
12287;DHT22;6206;53.100;11.098;2022-11-13T07:06:08;7.50;99.90
12287;DHT22;6206;53.100;11.098;2022-11-13T07:08:38;7.90;99.90
12287;DHT22;6206;53.100;11.098;2022-11-13T07:11:05;7.20;99.90
12287;DHT22;6206;53.100;11.098;2022-11-13T07:13:36;8.20;99.90
12287;DHT22;6206;53.100;11.098;2022-11-13T07:16:04;7.70;99.90
12287;DHT22;6206;53.100;11.098;2022-11-13T07:18:31;5.90;99.90
12287;DHT22;6206;53.100;11.098;2022-11-13T07:21:03;8.10;99.90
12287;DHT22;6206;53.100;11.098;2022-11-13T07:23:30;6.40;99.90
12287;DHT22;6206;53.100;11.098;2022-11-13T07:25:57;9.70;99.90
12287;DHT22;6206;53.100;11.098;2022-11-13T07:28:23;7.70;99.90
12287;DHT22;6206;53.100;11.098;2022-11-13T07:30:51;8.20;99.90
12287;DHT22;6206;53.100;11.098;2022-11-13T07:33:18;6.10;99.90
12287;DHT22;6206;53.100;11.098;2022-11-13T07:35:45;8.90;99.90
12287;DHT22;6206;53.100;11.098;2022-11-13T07:38:11;8.30;99.90
12287;DHT22;6206;53.100;11.098;2022-11-13T07:40:38;8.70;99.90
12287;DHT22;6206;53.100;11.098;2022-11-13T07:43:05;9.50;99.90
12287;DHT22;6206;53.100;11.098;2022-11-13T07:45:32;6.40;99.90
12287;DHT22;6206;53.100;11.098;2022-11-13T07:48:01;8.40;99.90
12287;DHT22;6206;53.100;11.098;2022-11-13T07:50:29;9.60;99.90
12287;DHT22;6206;53.100;11.098;2022-11-13T07:52:57;9.00;99.90
12287;DHT22;6206;53.100;11.098;2022-11-13T07:55:24;8.40;99.90
12287;DHT22;6206;53.100;11.098;2022-11-13T07:57:55;8.90;99.90
12287;DHT22;6206;53.100;11.098;2022-11-13T08:00:23;7.10;99.90
12287;DHT22;6206;53.100;11.098;2022-11-13T08:02:50;8.70;99.90
12287;DHT22;6206;53.100;11.098;2022-11-13T08:05:18;6.80;99.90
12287;DHT22;6206;53.100;11.098;2022-11-13T08:07:46;7.00;99.90
12287;DHT22;6206;53.100;11.098;2022-11-13T08:10:13;8.50;99.90
12287;DHT22;6206;53.100;11.098;2022-11-13T08:12:40;7.20;99.90
12287;DHT22;6206;53.100;11.098;2022-11-13T08:15:08;7.90;99.90
12287;DHT22;6206;53.100;11.098;2022-11-13T08:17:35;7.20;99.90
12287;DHT22;6206;53.100;11.098;2022-11-13T08:20:03;7.50;99.90
12287;DHT22;6206;53.100;11.098;2022-11-13T08:22:31;7.20;99.90
12287;DHT22;6206;53.100;11.098;2022-11-13T08:24:58;7.10;99.90
12287;DHT22;6206;53.100;11.098;2022-11-13T08:27:25;8.70;99.90
12287;DHT22;6206;53.100;11.098;2022-11-13T08:29:52;8.90;99.90
12287;DHT22;6206;53.100;11.098;2022-11-13T08:32:19;7.80;99.90
12287;DHT22;6206;53.100;11.098;2022-11-13T08:34:47;9.10;99.90
12287;DHT22;6206;53.100;11.098;2022-11-13T08:37:13;9.30;99.90
12287;DHT22;6206;53.100;11.098;2022-11-13T08:39:41;8.80;99.90
12287;DHT22;6206;53.100;11.098;2022-11-13T08:42:08;8.00;99.90
12287;DHT22;6206;53.100;11.098;2022-11-13T08:44:35;10.10;99.90
12287;DHT22;6206;53.100;11.098;2022-11-13T08:47:02;8.70;99.90
12287;DHT22;6206;53.100;11.098;2022-11-13T08:49:28;8.20;99.90
12287;DHT22;6206;53.100;11.098;2022-11-13T08:51:55;8.70;99.90
12287;DHT22;6206;53.100;11.098;2022-11-13T08:54:22;8.30;99.90
12287;DHT22;6206;53.100;11.098;2022-11-13T08:56:50;8.40;99.90
12287;DHT22;6206;53.100;11.098;2022-11-13T08:59:17;8.90;99.90
12287;DHT22;6206;53.100;11.098;2022-11-13T09:01:44;10.70;99.90
12287;DHT22;6206;53.100;11.098;2022-11-13T09:04:11;8.30;99.90
12287;DHT22;6206;53.100;11.098;2022-11-13T09:06:37;11.10;99.90
12287;DHT22;6206;53.100;11.098;2022-11-13T09:09:04;8.40;99.90
12287;DHT22;6206;53.100;11.098;2022-11-13T09:11:32;9.90;99.90
12287;DHT22;6206;53.100;11.098;2022-11-13T09:14:00;10.10;99.90
12287;DHT22;6206;53.100;11.098;2022-11-13T09:16:27;9.10;99.90
12287;DHT22;6206;53.100;11.098;2022-11-13T09:18:53;8.70;99.90
12287;DHT22;6206;53.100;11.098;2022-11-13T09:21:20;8.80;99.90
12287;DHT22;6206;53.100;11.098;2022-11-13T09:23:47;8.90;99.90
12287;DHT22;6206;53.100;11.098;2022-11-13T09:26:14;8.60;99.90
12287;DHT22;6206;53.100;11.098;2022-11-13T09:28:40;11.50;99.90
12287;DHT22;6206;53.100;11.098;2022-11-13T09:31:09;8.70;99.90
12287;DHT22;6206;53.100;11.098;2022-11-13T09:33:35;9.20;99.90
12287;DHT22;6206;53.100;11.098;2022-11-13T09:36:08;8.80;99.90
12287;DHT22;6206;53.100;11.098;2022-11-13T09:38:35;8.40;99.90
12287;DHT22;6206;53.100;11.098;2022-11-13T09:41:04;9.10;99.90
12287;DHT22;6206;53.100;11.098;2022-11-13T09:43:38;8.30;99.90
12287;DHT22;6206;53.100;11.098;2022-11-13T09:46:14;9.50;99.90
12287;DHT22;6206;53.100;11.098;2022-11-13T09:48:45;9.90;99.90
12287;DHT22;6206;53.100;11.098;2022-11-13T09:51:15;8.90;99.90
12287;DHT22;6206;53.100;11.098;2022-11-13T09:53:43;8.50;99.90
12287;DHT22;6206;53.100;11.098;2022-11-13T09:56:21;9.60;99.90
12287;DHT22;6206;53.100;11.098;2022-11-13T09:58:56;10.60;99.90
12287;DHT22;6206;53.100;11.098;2022-11-13T10:01:32;8.60;99.90
12287;DHT22;6206;53.100;11.098;2022-11-13T10:04:03;8.60;99.90
12287;DHT22;6206;53.100;11.098;2022-11-13T10:06:43;8.70;99.90
12287;DHT22;6206;53.100;11.098;2022-11-13T10:09:20;11.10;99.90
12287;DHT22;6206;53.100;11.098;2022-11-13T10:11:53;8.90;99.90
12287;DHT22;6206;53.100;11.098;2022-11-13T10:14:25;10.30;99.90
12287;DHT22;6206;53.100;11.098;2022-11-13T10:16:58;9.10;99.90
12287;DHT22;6206;53.100;11.098;2022-11-13T10:19:30;10.70;99.90
12287;DHT22;6206;53.100;11.098;2022-11-13T10:22:02;11.20;99.90
12287;DHT22;6206;53.100;11.098;2022-11-13T10:24:35;9.20;99.90
12287;DHT22;6206;53.100;11.098;2022-11-13T10:27:07;9.30;99.90
12287;DHT22;6206;53.100;11.098;2022-11-13T10:29:35;11.50;99.90
12287;DHT22;6206;53.100;11.098;2022-11-13T10:32:16;10.50;99.90
12287;DHT22;6206;53.100;11.098;2022-11-13T10:34:47;9.10;99.90
12287;DHT22;6206;53.100;11.098;2022-11-13T10:37:25;11.40;99.90
12287;DHT22;6206;53.100;11.098;2022-11-13T10:39:53;9.30;99.90
12287;DHT22;6206;53.100;11.098;2022-11-13T10:42:21;11.40;99.90
12287;DHT22;6206;53.100;11.098;2022-11-13T10:44:53;11.00;99.90
12287;DHT22;6206;53.100;11.098;2022-11-13T10:47:24;9.60;99.90
12287;DHT22;6206;53.100;11.098;2022-11-13T10:49:51;9.60;99.90
12287;DHT22;6206;53.100;11.098;2022-11-13T10:52:19;11.10;99.90
12287;DHT22;6206;53.100;11.098;2022-11-13T10:54:48;10.50;99.90
12287;DHT22;6206;53.100;11.098;2022-11-13T10:57:27;11.20;99.90
12287;DHT22;6206;53.100;11.098;2022-11-13T10:59:54;9.30;99.90
12287;DHT22;6206;53.100;11.098;2022-11-13T11:02:24;9.10;99.90
12287;DHT22;6206;53.100;11.098;2022-11-13T11:05:01;9.20;99.90
12287;DHT22;6206;53.100;11.098;2022-11-13T11:07:28;9.30;99.90
12287;DHT22;6206;53.100;11.098;2022-11-13T11:09:55;9.50;99.90
12287;DHT22;6206;53.100;11.098;2022-11-13T11:12:23;9.50;99.90
12287;DHT22;6206;53.100;11.098;2022-11-13T11:15:02;9.30;99.90
12287;DHT22;6206;53.100;11.098;2022-11-13T11:17:37;9.20;99.90
12287;DHT22;6206;53.100;11.098;2022-11-13T11:20:14;9.10;99.90
12287;DHT22;6206;53.100;11.098;2022-11-13T11:22:43;9.10;99.90
12287;DHT22;6206;53.100;11.098;2022-11-13T11:25:14;9.10;99.90
12287;DHT22;6206;53.100;11.098;2022-11-13T11:27:45;9.00;99.90
12287;DHT22;6206;53.100;11.098;2022-11-13T11:30:18;9.30;99.90
12287;DHT22;6206;53.100;11.098;2022-11-13T11:32:52;9.00;99.90
12287;DHT22;6206;53.100;11.098;2022-11-13T11:35:24;8.80;99.90
12287;DHT22;6206;53.100;11.098;2022-11-13T11:38:03;9.20;99.90
12287;DHT22;6206;53.100;11.098;2022-11-13T11:40:37;9.60;99.90
12287;DHT22;6206;53.100;11.098;2022-11-13T11:43:10;11.20;99.90
12287;DHT22;6206;53.100;11.098;2022-11-13T11:45:42;13.50;99.90
12287;DHT22;6206;53.100;11.098;2022-11-13T11:48:12;10.30;99.90
12287;DHT22;6206;53.100;11.098;2022-11-13T11:50:44;9.40;99.90
12287;DHT22;6206;53.100;11.098;2022-11-13T11:53:14;9.30;99.90
12287;DHT22;6206;53.100;11.098;2022-11-13T11:56:00;9.40;99.90
12287;DHT22;6206;53.100;11.098;2022-11-13T11:59:00;9.20;99.90
12287;DHT22;6206;53.100;11.098;2022-11-13T12:04:30;9.10;99.90
12287;DHT22;6206;53.100;11.098;2022-11-13T12:07:10;9.10;99.90
12287;DHT22;6206;53.100;11.098;2022-11-13T12:09:49;9.10;99.90
12287;DHT22;6206;53.100;11.098;2022-11-13T12:12:36;9.40;99.90
12287;DHT22;6206;53.100;11.098;2022-11-13T12:15:09;9.10;99.90
12287;DHT22;6206;53.100;11.098;2022-11-13T12:17:47;9.20;99.90
12287;DHT22;6206;53.100;11.098;2022-11-13T12:20:25;9.40;99.90
12287;DHT22;6206;53.100;11.098;2022-11-13T12:23:04;9.20;99.90
12287;DHT22;6206;53.100;11.098;2022-11-13T12:25:37;9.10;99.90
12287;DHT22;6206;53.100;11.098;2022-11-13T12:28:16;9.00;99.90
12287;DHT22;6206;53.100;11.098;2022-11-13T12:30:52;9.90;99.90
12287;DHT22;6206;53.100;11.098;2022-11-13T12:33:29;9.20;99.90
12287;DHT22;6206;53.100;11.098;2022-11-13T12:35:58;9.20;99.90
12287;DHT22;6206;53.100;11.098;2022-11-13T12:38:37;9.20;99.90
12287;DHT22;6206;53.100;11.098;2022-11-13T12:41:13;9.60;99.90
12287;DHT22;6206;53.100;11.098;2022-11-13T12:44:01;9.30;99.90
12287;DHT22;6206;53.100;11.098;2022-11-13T12:46:34;9.30;99.90
12287;DHT22;6206;53.100;11.098;2022-11-13T12:49:01;9.40;99.90
12287;DHT22;6206;53.100;11.098;2022-11-13T12:51:39;9.60;99.90
12287;DHT22;6206;53.100;11.098;2022-11-13T12:54:08;9.30;99.90
12287;DHT22;6206;53.100;11.098;2022-11-13T12:56:35;9.10;99.90
12287;DHT22;6206;53.100;11.098;2022-11-13T12:59:09;13.50;99.90
12287;DHT22;6206;53.100;11.098;2022-11-13T13:01:43;12.90;99.90
12287;DHT22;6206;53.100;11.098;2022-11-13T13:04:26;9.10;99.90
12287;DHT22;6206;53.100;11.098;2022-11-13T13:07:04;9.10;99.90
12287;DHT22;6206;53.100;11.098;2022-11-13T13:09:43;9.10;99.90
12287;DHT22;6206;53.100;11.098;2022-11-13T13:12:28;9.10;99.90
12287;DHT22;6206;53.100;11.098;2022-11-13T13:17:46;10.90;99.90
12287;DHT22;6206;53.100;11.098;2022-11-13T13:20:29;9.20;99.90
12287;DHT22;6206;53.100;11.098;2022-11-13T13:22:59;9.20;99.90
12287;DHT22;6206;53.100;11.098;2022-11-13T13:25:28;11.40;99.90
12287;DHT22;6206;53.100;11.098;2022-11-13T13:27:56;9.20;99.90
12287;DHT22;6206;53.100;11.098;2022-11-13T13:30:24;9.20;99.90
12287;DHT22;6206;53.100;11.098;2022-11-13T13:33:00;9.20;99.90
12287;DHT22;6206;53.100;11.098;2022-11-13T13:35:33;9.20;99.90
12287;DHT22;6206;53.100;11.098;2022-11-13T13:38:12;13.30;99.90
12287;DHT22;6206;53.100;11.098;2022-11-13T13:41:01;9.30;99.90
12287;DHT22;6206;53.100;11.098;2022-11-13T13:43:45;9.30;99.90
12287;DHT22;6206;53.100;11.098;2022-11-13T13:46:16;9.30;99.90
12287;DHT22;6206;53.100;11.098;2022-11-13T13:48:47;9.30;99.90
12287;DHT22;6206;53.100;11.098;2022-11-13T13:51:19;9.30;99.90
12287;DHT22;6206;53.100;11.098;2022-11-13T13:53:50;9.30;99.90
12287;DHT22;6206;53.100;11.098;2022-11-13T13:56:18;9.30;99.90
12287;DHT22;6206;53.100;11.098;2022-11-13T13:58:46;9.40;99.90
12287;DHT22;6206;53.100;11.098;2022-11-13T14:01:24;9.30;99.90
12287;DHT22;6206;53.100;11.098;2022-11-13T14:04:02;9.40;99.90
12287;DHT22;6206;53.100;11.098;2022-11-13T14:06:31;9.40;99.90
12287;DHT22;6206;53.100;11.098;2022-11-13T14:09:08;9.40;99.90
12287;DHT22;6206;53.100;11.098;2022-11-13T14:11:35;9.40;99.90
12287;DHT22;6206;53.100;11.098;2022-11-13T14:14:09;9.40;99.90
12287;DHT22;6206;53.100;11.098;2022-11-13T14:16:46;9.40;99.90
12287;DHT22;6206;53.100;11.098;2022-11-13T14:19:13;9.40;99.90
12287;DHT22;6206;53.100;11.098;2022-11-13T14:21:41;9.50;99.90
12287;DHT22;6206;53.100;11.098;2022-11-13T14:24:15;9.60;99.90
12287;DHT22;6206;53.100;11.098;2022-11-13T14:26:42;9.50;99.90
12287;DHT22;6206;53.100;11.098;2022-11-13T14:29:20;9.50;99.90
12287;DHT22;6206;53.100;11.098;2022-11-13T14:31:50;9.60;99.90
12287;DHT22;6206;53.100;11.098;2022-11-13T14:34:20;9.60;99.90
12287;DHT22;6206;53.100;11.098;2022-11-13T14:36:48;9.70;99.90
12287;DHT22;6206;53.100;11.098;2022-11-13T14:39:22;9.90;99.90
12287;DHT22;6206;53.100;11.098;2022-11-13T14:41:52;9.90;99.90
12287;DHT22;6206;53.100;11.098;2022-11-13T14:44:25;9.80;99.90
12287;DHT22;6206;53.100;11.098;2022-11-13T14:46:59;9.80;99.90
12287;DHT22;6206;53.100;11.098;2022-11-13T14:49:28;9.70;99.90
12287;DHT22;6206;53.100;11.098;2022-11-13T14:51:56;9.70;99.90
12287;DHT22;6206;53.100;11.098;2022-11-13T14:54:32;9.60;99.90
12287;DHT22;6206;53.100;11.098;2022-11-13T14:57:06;9.50;99.90
12287;DHT22;6206;53.100;11.098;2022-11-13T14:59:34;9.50;99.90
12287;DHT22;6206;53.100;11.098;2022-11-13T15:02:02;9.50;99.90
12287;DHT22;6206;53.100;11.098;2022-11-13T15:04:28;9.60;99.90
12287;DHT22;6206;53.100;11.098;2022-11-13T15:06:58;9.60;99.90
12287;DHT22;6206;53.100;11.098;2022-11-13T15:09:25;9.60;99.90
12287;DHT22;6206;53.100;11.098;2022-11-13T15:11:54;9.60;99.90
12287;DHT22;6206;53.100;11.098;2022-11-13T15:14:21;9.70;99.90
12287;DHT22;6206;53.100;11.098;2022-11-13T15:16:50;9.70;99.90
12287;DHT22;6206;53.100;11.098;2022-11-13T15:19:21;9.70;99.90
12287;DHT22;6206;53.100;11.098;2022-11-13T15:21:50;9.70;99.90
12287;DHT22;6206;53.100;11.098;2022-11-13T15:24:17;9.80;99.90
12287;DHT22;6206;53.100;11.098;2022-11-13T15:26:43;9.80;99.90
12287;DHT22;6206;53.100;11.098;2022-11-13T15:29:11;9.90;99.90
12287;DHT22;6206;53.100;11.098;2022-11-13T15:31:40;9.80;99.90
12287;DHT22;6206;53.100;11.098;2022-11-13T15:34:09;9.70;99.90
12287;DHT22;6206;53.100;11.098;2022-11-13T15:36:36;9.70;99.90
12287;DHT22;6206;53.100;11.098;2022-11-13T15:39:03;9.80;99.90
12287;DHT22;6206;53.100;11.098;2022-11-13T15:41:30;9.70;99.90
12287;DHT22;6206;53.100;11.098;2022-11-13T15:43:59;9.80;99.90
12287;DHT22;6206;53.100;11.098;2022-11-13T15:46:28;9.80;99.90
12287;DHT22;6206;53.100;11.098;2022-11-13T15:48:54;9.80;99.90
12287;DHT22;6206;53.100;11.098;2022-11-13T15:51:24;9.80;99.90
12287;DHT22;6206;53.100;11.098;2022-11-13T15:53:55;9.80;99.90
12287;DHT22;6206;53.100;11.098;2022-11-13T15:56:24;9.80;99.90
12287;DHT22;6206;53.100;11.098;2022-11-13T15:58:51;9.80;99.90
12287;DHT22;6206;53.100;11.098;2022-11-13T16:01:18;9.50;99.90
12287;DHT22;6206;53.100;11.098;2022-11-13T16:03:46;9.70;99.90
12287;DHT22;6206;53.100;11.098;2022-11-13T16:06:16;9.70;99.90